Skip Navigation Links Skip Navigation Links

Current Weather

Danville Regional, Danville, Va.

For information only: do not use for flight planning or navigation.
Latest weather
Observation time Thursday, December 13, 2018 1:53 PM EST
Local time Thursday, December 13, 2018 2:03 PM EST
Flight conditions Visual Meteorological Conditions
Winds
Wind speed calm
Visibility 10 mi.
Sky condition
Ceiling 8,000 ft. overcast
Cloud layer overcast 8,000 ft.
Temperature 48°F
Dewpoint 29°F
Altimeter 30.28 in.Hg
Derived measurements
Relative humidity 47%
Wind chill 48°F
Density altitude -486 ft.
Sea-level pressure 30.27 in.Hg
Remarks
Fully automated report.
Automated weather observing station with precipitation discriminator.
METAR KDAN 131853Z AUTO 00000KT 10SM OVC080 09/M02 A3028 RMK AO2 SLP251 T00891017

Settings

Location code

InnerDrive.Weather 4.0.6770.0 Release CLR 4.0.30319.42000
Copyright ©2018 Inner Drive Technology. All rights reserved. Portions Copyright ©1986-2018 David Braverman.

Find weather

Site navigation


Skip Navigation Links

Place info

Page info

PayPal - The safer, easier way to pay online!

Return home.

Copyright ©2018 Inner Drive Technology. Purveyors of fine, hand-crafted computer software. Page printed 2018-12-13T19:03:45 UTC.